Jasper, Canada
Current Conditions -  °F | °C
As of 5:00 PM on Friday 19 Dec 2014 (Local Time) from CYET Reporting Station
Overcast Overcast  
Wind Chill: 19°   Ceiling: 14000
Heat Index: 19°   Visibility: 9mi
Dew Point: 18°   Wind: 0mph
Humidity: 93%   Direction: NA
Pressure: 29.63"   Gusts: NA
Location:  52.87°N, 118.08°W
Report Text: CYET 200000Z AUTO 00000KT 9SM FEW120 BKN140 OVC160 M07/M08 A2963 RMK SLP097
Loading
Personal Weather Stations






























Interactive Weather Map New forecast layout! Learn more

10-Day Weather Forecast

Advertisements
Track Severe Weather on mobile